createdAt,value
2023-03-14T01:44:01.941Z,98111.59
2023-03-14T01:47:30.923Z,98121.31
2023-03-14T01:50:37.617Z,98400.97
2023-03-14T01:56:47.562Z,98397.81
2023-03-14T01:59:46.529Z,98360.91
2023-03-14T02:03:01.739Z,98322.19
2023-03-14T02:05:42.990Z,98192.72
2023-03-14T02:08:35.490Z,98377.56
2023-03-14T02:11:10.371Z,98325.59
2023-03-14T02:13:54.006Z,98395.34
2023-03-14T02:16:39.871Z,98402.78
2023-03-14T02:20:22.991Z,98394.28
2023-03-14T02:22:59.209Z,98388.53
2023-03-14T02:25:40.033Z,98357.88
2023-03-14T02:28:13.351Z,98337.75
2023-03-14T02:30:44.068Z,98351.16
2023-03-14T02:33:19.549Z,98331.75
2023-03-14T02:35:54.857Z,98303.09
2023-03-14T02:38:30.318Z,98391.59
2023-03-14T02:41:00.090Z,98394.88
2023-03-14T02:43:33.782Z,98344.25
2023-03-14T02:46:08.795Z,98382.09
2023-03-14T02:48:43.413Z,98382.81
2023-03-14T02:51:15.311Z,98339.34
2023-03-14T02:53:45.657Z,98382.03
2023-03-14T02:56:16.917Z,98320.97
2023-03-14T02:58:49.884Z,98300.56
2023-03-14T03:01:34.263Z,98319.09
2023-03-14T03:04:04.592Z,98295.59
2023-03-14T03:06:34.796Z,98323.31
2023-03-14T03:09:05.241Z,98373.78
2023-03-14T03:11:35.541Z,98383.38
2023-03-14T03:14:11.250Z,98379.63
2023-03-14T03:16:41.127Z,98346.44
2023-03-14T03:19:11.370Z,98306.56
2023-03-14T03:21:41.014Z,98386.06
2023-03-14T03:24:10.704Z,98387.97
2023-03-14T03:26:40.689Z,98364.38
2023-03-14T03:29:15.439Z,98392.00
2023-03-14T03:31:46.534Z,98324.19
2023-03-14T03:34:17.165Z,98255.56
2023-03-14T03:36:47.728Z,98326.38
2023-03-14T03:39:17.898Z,98358.44
2023-03-14T03:41:50.639Z,98369.44
2023-03-14T03:44:23.352Z,98387.13
2023-03-14T03:46:54.704Z,98373.47
2023-03-14T03:49:24.757Z,98389.06
2023-03-14T03:51:54.719Z,98379.03
2023-03-14T03:54:24.456Z,98376.41
2023-03-14T03:56:54.395Z,98381.47
2023-03-14T03:59:27.075Z,98350.22
2023-03-14T04:01:56.936Z,98378.25
2023-03-14T04:04:27.316Z,98326.06
2023-03-14T04:06:57.066Z,98396.13
2023-03-14T04:09:27.250Z,98342.16
2023-03-14T04:12:14.419Z,98392.59
2023-03-14T04:15:00.340Z,98345.53
2023-03-14T04:17:29.995Z,98384.13
2023-03-14T04:19:59.680Z,98378.16
2023-03-14T04:22:37.142Z,98348.75
2023-03-14T04:25:07.845Z,98375.75
2023-03-14T04:27:43.146Z,98377.47
2023-03-14T04:30:24.046Z,98339.63
2023-03-14T04:33:00.915Z,98314.34
2023-03-14T04:35:34.710Z,98379.16
2023-03-14T04:38:10.216Z,98326.22
2023-03-14T04:40:40.879Z,98359.78
2023-03-14T04:43:11.868Z,98357.19
2023-03-14T04:45:50.416Z,98360.56
2023-03-14T04:48:21.277Z,98309.94
2023-03-14T04:50:51.806Z,98340.28
2023-03-14T04:53:22.750Z,98313.22
2023-03-14T04:55:56.254Z,98279.41
2023-03-14T04:58:28.132Z,98326.91
2023-03-14T05:01:05.729Z,98340.41
2023-03-14T05:03:53.726Z,98322.66
2023-03-14T05:06:51.580Z,98312.50
2023-03-14T05:09:44.271Z,98308.31
2023-03-14T05:12:32.463Z,98310.97
2023-03-14T05:15:13.007Z,98312.63
2023-03-14T05:18:03.802Z,98273.00
2023-03-14T05:20:44.947Z,98219.34
2023-03-14T05:23:49.598Z,98299.94
2023-03-14T05:26:33.667Z,98291.69
2023-03-14T05:29:22.487Z,98272.31
2023-03-14T05:32:10.953Z,98318.59
2023-03-14T05:35:01.908Z,98308.50
2023-03-14T05:37:42.761Z,98283.31
2023-03-14T05:40:48.625Z,98307.56
2023-03-14T05:43:41.130Z,98306.03
2023-03-14T05:46:18.988Z,98321.91
2023-03-14T05:49:06.081Z,98321.91
2023-03-14T05:51:53.845Z,98280.44
2023-03-14T05:54:42.395Z,98291.34
2023-03-14T05:57:30.582Z,98311.66
2023-03-14T06:00:20.382Z,98291.34
2023-03-14T06:03:00.294Z,98256.97
2023-03-14T06:05:35.383Z,98296.44
2023-03-14T06:08:08.966Z,98254.22
2023-03-14T06:10:39.284Z,98308.00
2023-03-14T06:13:08.952Z,98144.91
2023-03-14T06:15:39.105Z,98291.03
2023-03-14T06:18:09.175Z,98315.44
2023-03-14T06:20:40.653Z,98259.88
2023-03-14T06:23:15.605Z,98285.25
2023-03-14T06:25:45.545Z,98238.88
2023-03-14T06:28:15.372Z,98326.41
2023-03-14T06:30:45.544Z,98306.97
2023-03-14T06:33:17.934Z,98306.09
2023-03-14T06:35:48.447Z,98274.03
2023-03-14T06:38:21.980Z,98304.13
2023-03-14T06:40:55.801Z,98218.50
2023-03-14T06:43:37.939Z,98302.69
2023-03-14T06:46:10.515Z,98235.38
2023-03-14T06:48:43.557Z,98298.66
2023-03-14T06:56:04.296Z,98266.59
2023-03-14T07:03:04.515Z,98332.09
2023-03-14T07:05:49.984Z,98308.69
2023-03-14T07:09:19.154Z,98196.94
2023-03-14T07:21:24.302Z,98338.38
2023-03-14T07:24:17.765Z,98326.91
2023-03-14T07:35:32.851Z,98263.63
2023-03-14T07:39:13.345Z,98349.53
2023-03-14T07:51:06.637Z,98350.84
2023-03-14T08:02:06.827Z,98199.69
2023-03-14T08:05:09.753Z,98287.94
2023-03-14T08:08:56.915Z,98166.78
2023-03-14T08:11:51.692Z,98270.41
2023-03-14T08:14:56.029Z,98232.59
2023-03-14T08:18:01.003Z,98166.13
2023-03-14T08:20:56.495Z,98219.97
2023-03-14T08:23:42.942Z,98152.44
2023-03-14T08:26:50.874Z,98245.13
2023-03-14T08:29:25.212Z,98180.06
2023-03-14T08:32:19.920Z,98186.53
2023-03-14T08:34:54.720Z,98365.88
2023-03-14T08:37:33.582Z,98332.88
2023-03-14T08:40:15.495Z,98364.09
2023-03-14T08:42:50.899Z,98218.53
2023-03-14T08:45:21.385Z,98354.78
2023-03-14T08:47:54.302Z,98283.47
2023-03-14T08:50:29.536Z,98166.41
2023-03-14T08:53:07.038Z,98255.00
2023-03-14T08:55:41.635Z,98074.22
2023-03-14T08:58:11.849Z,98305.31
2023-03-14T09:00:45.080Z,98244.84
2023-03-14T09:03:15.589Z,98319.69
2023-03-14T09:05:48.117Z,98377.63
2023-03-14T09:08:18.004Z,98326.09
2023-03-14T09:10:47.808Z,98288.00
2023-03-14T09:13:17.498Z,98351.03
2023-03-14T09:15:47.205Z,98366.81
2023-03-14T09:18:17.207Z,98282.66
2023-03-14T09:20:49.446Z,98326.09
2023-03-14T09:23:19.433Z,98367.56
2023-03-14T09:25:49.114Z,98372.59
2023-03-14T09:28:19.086Z,98305.00
2023-03-14T09:30:49.304Z,98361.25
2023-03-14T09:33:19.315Z,98301.75
2023-03-14T09:35:53.046Z,98369.59
2023-03-14T09:38:24.493Z,98346.91
2023-03-14T09:40:59.737Z,98138.56
2023-03-14T09:43:38.152Z,98111.84
2023-03-14T09:46:18.667Z,98177.09
2023-03-14T09:49:18.799Z,98354.91
2023-03-14T09:51:53.778Z,98342.28
2023-03-14T09:54:35.076Z,98296.19
2023-03-14T09:57:05.701Z,98348.41
2023-03-14T09:59:37.488Z,98358.56
2023-03-14T10:02:18.058Z,98352.00
2023-03-14T10:04:50.127Z,98362.34
2023-03-14T10:07:25.644Z,98333.78
2023-03-14T10:09:55.640Z,98329.63
2023-03-14T10:12:34.646Z,98352.09
2023-03-14T10:15:07.880Z,98360.31
2023-03-14T10:17:43.936Z,98388.09
2023-03-14T10:20:42.794Z,98356.00
2023-03-14T10:23:28.564Z,98366.91
2023-03-14T10:26:10.707Z,98376.84
2023-03-14T10:28:43.730Z,98355.66
2023-03-14T10:31:13.762Z,98374.81
2023-03-14T10:33:43.472Z,98376.72
2023-03-14T10:36:23.487Z,98335.31
2023-03-14T10:39:02.123Z,98353.97
2023-03-14T10:41:51.813Z,98400.88
2023-03-14T10:53:21.099Z,98461.06
2023-03-14T11:17:55.246Z,98576.50
2023-03-14T14:35:04.067Z,99171.59
2023-03-14T14:59:13.230Z,99283.25
2023-03-14T15:01:57.066Z,99411.72
2023-03-14T15:04:29.836Z,99314.47
2023-03-14T15:06:59.754Z,99367.47
2023-03-14T15:09:29.520Z,99441.69
2023-03-14T15:11:59.127Z,99453.53
2023-03-14T15:14:31.375Z,99494.50
2023-03-14T15:17:01.126Z,99459.38
2023-03-14T15:19:33.560Z,99496.56
2023-03-14T15:22:03.222Z,99483.00
2023-03-14T15:24:32.954Z,99517.75
2023-03-14T15:27:02.723Z,99532.16
2023-03-14T15:29:39.690Z,99532.22
2023-03-14T15:32:14.922Z,99487.59
2023-03-14T15:34:45.061Z,99444.00
2023-03-14T15:37:18.334Z,99536.06
2023-03-14T15:40:41.709Z,99384.69
2023-03-14T15:52:05.105Z,99592.00
2023-03-14T19:55:49.926Z,100072.94
2023-03-14T20:02:09.266Z,99825.16
2023-03-14T20:05:08.433Z,100010.81
2023-03-14T20:08:31.915Z,100140.44
2023-03-14T20:11:16.449Z,100188.47
2023-03-14T20:13:47.517Z,100134.34
2023-03-14T20:16:17.737Z,100098.94
2023-03-14T20:18:47.637Z,100141.66
2023-03-14T20:21:22.119Z,100077.50
2023-03-14T20:23:57.502Z,100135.50
2023-03-14T20:26:28.752Z,100206.75
2023-03-14T20:28:59.198Z,100141.19
2023-03-14T20:31:30.319Z,100222.56
2023-03-14T20:34:01.658Z,100157.81
2023-03-14T20:36:32.016Z,100174.69
2023-03-14T20:39:05.638Z,100214.81
2023-03-14T20:41:42.135Z,100172.84
2023-03-14T20:44:13.818Z,100174.31
2023-03-14T20:46:44.265Z,100252.50
2023-03-14T20:49:14.858Z,100162.31
2023-03-14T20:51:44.778Z,100158.94
2023-03-14T20:54:18.140Z,100102.34
2023-03-14T20:56:48.689Z,100191.44
2023-03-14T20:59:18.699Z,100182.66
2023-03-14T21:01:50.515Z,100272.94
2023-03-14T21:04:21.570Z,100205.09
2023-03-14T21:06:55.315Z,100185.00
2023-03-14T21:09:29.297Z,100209.91
2023-03-14T21:11:59.436Z,100202.00
2023-03-14T21:14:29.804Z,100215.22
2023-03-14T21:17:00.726Z,100214.53
2023-03-14T21:19:34.410Z,100202.53
2023-03-14T21:22:09.080Z,100189.75
2023-03-14T21:24:42.184Z,100275.66
2023-03-14T21:27:13.085Z,100264.41
2023-03-14T21:29:43.673Z,100271.59
2023-03-14T21:32:13.483Z,100287.00
2023-03-14T21:34:43.223Z,100266.38
2023-03-14T21:37:12.860Z,100280.38
2023-03-14T21:39:45.198Z,100283.59
2023-03-14T21:42:14.869Z,100287.25
2023-03-14T21:44:48.611Z,100271.69
2023-03-14T21:47:19.617Z,100291.72
2023-03-14T21:49:50.279Z,100303.44
2023-03-14T21:52:20.336Z,100288.66
2023-03-14T21:54:54.519Z,100230.94
2023-03-14T21:57:30.286Z,100287.78
2023-03-14T22:00:00.505Z,100208.66
2023-03-14T22:02:31.102Z,100233.06
2023-03-14T22:05:02.329Z,100304.59
2023-03-14T22:07:32.613Z,100288.47
2023-03-14T22:10:08.479Z,100291.97
2023-03-14T22:12:38.748Z,100213.66
2023-03-14T22:15:10.543Z,100295.03
2023-03-14T22:17:41.502Z,100243.00
2023-03-14T22:20:13.948Z,100286.13
2023-03-14T22:22:43.839Z,100283.81
2023-03-14T22:25:16.219Z,100244.31
2023-03-14T22:27:45.884Z,100296.94
2023-03-14T22:30:16.241Z,100281.88
2023-03-14T22:32:45.920Z,100291.47
2023-03-14T22:35:15.559Z,100293.44
2023-03-14T22:37:45.194Z,100262.56
2023-03-14T22:40:17.816Z,100291.44
2023-03-14T22:42:48.401Z,100313.91
2023-03-14T22:45:18.196Z,100315.47
2023-03-14T22:47:47.911Z,100298.28
2023-03-14T22:50:17.804Z,100315.56
2023-03-14T22:52:47.432Z,100340.34
2023-03-14T22:55:19.933Z,100323.38
2023-03-14T22:57:49.707Z,100337.41
2023-03-14T23:00:19.924Z,100299.91
2023-03-14T23:02:49.906Z,100328.09
2023-03-14T23:05:19.820Z,100342.31
2023-03-14T23:07:49.481Z,100335.25
2023-03-14T23:10:22.751Z,100337.25
2023-03-14T23:12:54.323Z,100338.63
2023-03-14T23:15:24.283Z,100337.19
2023-03-14T23:17:54.123Z,100336.38
2023-03-14T23:20:23.802Z,100319.91
2023-03-14T23:22:53.617Z,100338.03
2023-03-14T23:25:25.876Z,100341.41
2023-03-14T23:27:55.562Z,100344.44
2023-03-14T23:30:25.356Z,100353.75
2023-03-14T23:32:55.063Z,100332.78
2023-03-14T23:35:24.950Z,100348.03
2023-03-14T23:37:54.571Z,100335.03
2023-03-14T23:40:26.873Z,100348.00
2023-03-14T23:42:56.541Z,100364.50
2023-03-14T23:45:26.482Z,100349.44
2023-03-14T23:47:57.832Z,100296.41
2023-03-14T23:50:27.628Z,100359.94
2023-03-14T23:52:57.322Z,100367.22
2023-03-14T23:55:29.505Z,100361.78
2023-03-14T23:57:59.192Z,100355.44
